sensor_id;sensor_type;location;lat;lon;timestamp;pressure;altitude;pressure_sealevel;temperature;humidity
29815;BME280;16708;50.426;7.664;2022-09-06T00:01:22;988.08;;;18.52;83.04
29815;BME280;16708;50.426;7.664;2022-09-06T00:06:16;987.99;;;18.53;84.96
29815;BME280;16708;50.426;7.664;2022-09-06T00:11:10;987.92;;;18.42;85.10
29815;BME280;16708;50.426;7.664;2022-09-06T00:16:05;987.89;;;18.34;86.31
29815;BME280;16708;50.426;7.664;2022-09-06T00:21:00;987.76;;;18.36;86.05
29815;BME280;16708;50.426;7.664;2022-09-06T00:25:54;987.69;;;18.31;87.28
29815;BME280;16708;50.426;7.664;2022-09-06T00:30:49;987.68;;;18.41;85.93
29815;BME280;16708;50.426;7.664;2022-09-06T00:35:44;987.74;;;18.38;85.37
29815;BME280;16708;50.426;7.664;2022-09-06T00:40:38;987.88;;;18.37;86.13
29815;BME280;16708;50.426;7.664;2022-09-06T00:45:33;988.25;;;18.21;85.96
29815;BME280;16708;50.426;7.664;2022-09-06T00:50:28;988.55;;;18.34;90.12
29815;BME280;16708;50.426;7.664;2022-09-06T00:55:22;988.40;;;18.57;85.23
29815;BME280;16708;50.426;7.664;2022-09-06T01:00:17;988.60;;;18.67;86.64
29815;BME280;16708;50.426;7.664;2022-09-06T01:10:07;988.82;;;18.26;92.79
29815;BME280;16708;50.426;7.664;2022-09-06T01:29:44;988.84;;;18.27;94.01
29815;BME280;16708;50.426;7.664;2022-09-06T01:34:39;989.04;;;18.07;98.64
29815;BME280;16708;50.426;7.664;2022-09-06T01:39:34;989.00;;;18.13;97.44
29815;BME280;16708;50.426;7.664;2022-09-06T01:44:28;989.13;;;18.32;94.27
29815;BME280;16708;50.426;7.664;2022-09-06T01:54:18;989.31;;;19.17;84.74
29815;BME280;16708;50.426;7.664;2022-09-06T01:59:11;989.27;;;19.31;85.06
29815;BME280;16708;50.426;7.664;2022-09-06T02:09:01;989.10;;;19.42;87.55
29815;BME280;16708;50.426;7.664;2022-09-06T02:13:55;989.05;;;19.53;89.58
29815;BME280;16708;50.426;7.664;2022-09-06T02:18:49;988.92;;;19.55;89.36
29815;BME280;16708;50.426;7.664;2022-09-06T02:23:44;988.75;;;19.51;90.24
29815;BME280;16708;50.426;7.664;2022-09-06T02:28:39;988.52;;;19.44;92.16
29815;BME280;16708;50.426;7.664;2022-09-06T02:33:33;988.39;;;19.44;93.18
29815;BME280;16708;50.426;7.664;2022-09-06T02:38:28;988.40;;;19.33;94.41
29815;BME280;16708;50.426;7.664;2022-09-06T02:43:22;988.19;;;19.25;94.80
29815;BME280;16708;50.426;7.664;2022-09-06T02:48:17;988.12;;;19.22;96.47
29815;BME280;16708;50.426;7.664;2022-09-06T02:53:12;988.08;;;19.22;97.70
29815;BME280;16708;50.426;7.664;2022-09-06T02:58:07;987.82;;;19.15;100.00
29815;BME280;16708;50.426;7.664;2022-09-06T03:03:01;987.49;;;19.10;100.00
29815;BME280;16708;50.426;7.664;2022-09-06T03:07:55;987.40;;;19.20;100.00
29815;BME280;16708;50.426;7.664;2022-09-06T03:12:50;987.46;;;19.21;100.00
29815;BME280;16708;50.426;7.664;2022-09-06T03:17:45;987.50;;;19.17;100.00
29815;BME280;16708;50.426;7.664;2022-09-06T03:22:40;987.62;;;19.06;100.00
29815;BME280;16708;50.426;7.664;2022-09-06T03:27:32;987.64;;;18.88;100.00
29815;BME280;16708;50.426;7.664;2022-09-06T03:32:27;987.84;;;18.47;100.00
29815;BME280;16708;50.426;7.664;2022-09-06T03:37:22;987.80;;;18.28;100.00
29815;BME280;16708;50.426;7.664;2022-09-06T03:42:16;987.71;;;18.07;100.00
29815;BME280;16708;50.426;7.664;2022-09-06T03:47:10;987.66;;;17.91;100.00
29815;BME280;16708;50.426;7.664;2022-09-06T03:52:05;987.82;;;17.78;100.00
29815;BME280;16708;50.426;7.664;2022-09-06T03:56:59;987.60;;;17.61;100.00
29815;BME280;16708;50.426;7.664;2022-09-06T04:01:54;987.62;;;17.39;100.00
29815;BME280;16708;50.426;7.664;2022-09-06T04:06:48;987.62;;;17.14;100.00
29815;BME280;16708;50.426;7.664;2022-09-06T04:11:43;987.63;;;17.04;100.00
29815;BME280;16708;50.426;7.664;2022-09-06T04:16:37;987.52;;;16.89;100.00
29815;BME280;16708;50.426;7.664;2022-09-06T04:21:32;987.53;;;16.77;100.00
29815;BME280;16708;50.426;7.664;2022-09-06T04:26:26;987.56;;;16.61;100.00
29815;BME280;16708;50.426;7.664;2022-09-06T04:31:21;987.42;;;16.59;100.00
29815;BME280;16708;50.426;7.664;2022-09-06T04:36:15;987.44;;;16.55;100.00
29815;BME280;16708;50.426;7.664;2022-09-06T04:41:10;987.55;;;16.46;100.00
29815;BME280;16708;50.426;7.664;2022-09-06T04:46:05;987.65;;;16.36;100.00
29815;BME280;16708;50.426;7.664;2022-09-06T04:51:00;987.61;;;16.26;100.00
29815;BME280;16708;50.426;7.664;2022-09-06T04:55:54;987.67;;;16.21;100.00
29815;BME280;16708;50.426;7.664;2022-09-06T05:00:49;987.78;;;16.15;100.00
29815;BME280;16708;50.426;7.664;2022-09-06T05:05:45;987.70;;;16.09;100.00
29815;BME280;16708;50.426;7.664;2022-09-06T05:10:37;987.66;;;16.09;100.00
29815;BME280;16708;50.426;7.664;2022-09-06T05:15:32;987.75;;;16.07;100.00
29815;BME280;16708;50.426;7.664;2022-09-06T05:20:25;987.70;;;16.18;100.00
29815;BME280;16708;50.426;7.664;2022-09-06T05:25:20;987.81;;;16.14;100.00
29815;BME280;16708;50.426;7.664;2022-09-06T05:30:14;987.86;;;16.17;100.00
29815;BME280;16708;50.426;7.664;2022-09-06T05:35:09;987.92;;;16.17;100.00
29815;BME280;16708;50.426;7.664;2022-09-06T05:40:03;987.90;;;16.31;100.00
29815;BME280;16708;50.426;7.664;2022-09-06T05:44:58;987.85;;;16.45;100.00
29815;BME280;16708;50.426;7.664;2022-09-06T05:49:53;987.87;;;16.61;100.00
29815;BME280;16708;50.426;7.664;2022-09-06T05:54:47;988.03;;;16.85;100.00
29815;BME280;16708;50.426;7.664;2022-09-06T05:59:42;988.03;;;16.90;100.00
29815;BME280;16708;50.426;7.664;2022-09-06T06:04:37;988.16;;;17.12;100.00
29815;BME280;16708;50.426;7.664;2022-09-06T06:09:32;988.14;;;17.45;100.00
29815;BME280;16708;50.426;7.664;2022-09-06T06:14:26;988.14;;;17.75;100.00
29815;BME280;16708;50.426;7.664;2022-09-06T06:19:21;988.12;;;18.03;100.00
29815;BME280;16708;50.426;7.664;2022-09-06T06:24:16;988.19;;;18.12;100.00
29815;BME280;16708;50.426;7.664;2022-09-06T06:29:11;988.23;;;18.34;100.00
29815;BME280;16708;50.426;7.664;2022-09-06T06:34:05;988.23;;;18.71;100.00
29815;BME280;16708;50.426;7.664;2022-09-06T06:38:59;988.31;;;18.87;100.00
29815;BME280;16708;50.426;7.664;2022-09-06T06:43:54;988.34;;;19.03;100.00
29815;BME280;16708;50.426;7.664;2022-09-06T06:48:49;988.39;;;19.39;100.00
29815;BME280;16708;50.426;7.664;2022-09-06T06:58:39;988.29;;;19.71;100.00
29815;BME280;16708;50.426;7.664;2022-09-06T07:03:33;988.25;;;19.85;100.00
29815;BME280;16708;50.426;7.664;2022-09-06T07:08:28;988.20;;;20.16;100.00
29815;BME280;16708;50.426;7.664;2022-09-06T07:13:23;988.25;;;20.22;100.00
29815;BME280;16708;50.426;7.664;2022-09-06T07:18:16;988.19;;;20.38;100.00
29815;BME280;16708;50.426;7.664;2022-09-06T07:23:10;988.16;;;20.65;100.00
29815;BME280;16708;50.426;7.664;2022-09-06T07:28:06;988.20;;;21.05;93.59
29815;BME280;16708;50.426;7.664;2022-09-06T07:33:01;988.23;;;21.04;95.65
29815;BME280;16708;50.426;7.664;2022-09-06T07:37:56;988.23;;;21.21;93.26
29815;BME280;16708;50.426;7.664;2022-09-06T07:42:51;988.28;;;21.28;92.14
29815;BME280;16708;50.426;7.664;2022-09-06T07:47:46;988.21;;;21.40;88.91
29815;BME280;16708;50.426;7.664;2022-09-06T07:52:40;988.17;;;21.73;87.52
29815;BME280;16708;50.426;7.664;2022-09-06T07:57:35;988.22;;;22.04;84.47
29815;BME280;16708;50.426;7.664;2022-09-06T08:02:30;988.23;;;22.18;82.46
29815;BME280;16708;50.426;7.664;2022-09-06T08:07:24;988.27;;;22.38;78.53
29815;BME280;16708;50.426;7.664;2022-09-06T08:12:19;988.26;;;22.67;77.09
29815;BME280;16708;50.426;7.664;2022-09-06T08:17:14;988.22;;;22.95;74.32
29815;BME280;16708;50.426;7.664;2022-09-06T08:22:09;988.19;;;23.26;68.57
29815;BME280;16708;50.426;7.664;2022-09-06T08:27:04;988.22;;;23.16;63.58
29815;BME280;16708;50.426;7.664;2022-09-06T08:31:59;988.25;;;23.05;62.73
29815;BME280;16708;50.426;7.664;2022-09-06T08:36:54;988.25;;;23.20;63.11
29815;BME280;16708;50.426;7.664;2022-09-06T08:41:49;988.30;;;23.49;62.51
29815;BME280;16708;50.426;7.664;2022-09-06T08:56:33;988.16;;;24.04;58.46
29815;BME280;16708;50.426;7.664;2022-09-06T09:01:28;988.06;;;23.80;58.05
29815;BME280;16708;50.426;7.664;2022-09-06T09:06:22;988.02;;;24.44;56.71
29815;BME280;16708;50.426;7.664;2022-09-06T09:11:17;988.05;;;24.48;57.62
29815;BME280;16708;50.426;7.664;2022-09-06T09:16:12;987.93;;;25.31;53.65
29815;BME280;16708;50.426;7.664;2022-09-06T09:21:07;988.02;;;27.45;44.78
29815;BME280;16708;50.426;7.664;2022-09-06T09:26:02;988.04;;;27.94;43.37
29815;BME280;16708;50.426;7.664;2022-09-06T09:35:54;987.94;;;30.81;35.37
29815;BME280;16708;50.426;7.664;2022-09-06T09:40:51;987.85;;;29.33;37.75
29815;BME280;16708;50.426;7.664;2022-09-06T09:50:42;987.79;;;29.72;37.06
29815;BME280;16708;50.426;7.664;2022-09-06T09:55:37;987.78;;;30.76;35.88
29815;BME280;16708;50.426;7.664;2022-09-06T10:00:32;987.80;;;31.07;34.38
29815;BME280;16708;50.426;7.664;2022-09-06T10:05:28;987.76;;;31.96;33.81
29815;BME280;16708;50.426;7.664;2022-09-06T10:10:23;987.77;;;31.69;33.18
29815;BME280;16708;50.426;7.664;2022-09-06T10:15:17;987.72;;;32.76;32.55
29815;BME280;16708;50.426;7.664;2022-09-06T10:25:06;987.64;;;33.46;30.46
29815;BME280;16708;50.426;7.664;2022-09-06T10:30:01;987.50;;;33.39;30.09
29815;BME280;16708;50.426;7.664;2022-09-06T10:34:56;987.65;;;32.30;30.79
29815;BME280;16708;50.426;7.664;2022-09-06T10:49:41;987.58;;;32.25;31.45
29815;BME280;16708;50.426;7.664;2022-09-06T10:54:36;987.42;;;33.55;30.11
29815;BME280;16708;50.426;7.664;2022-09-06T10:59:31;987.49;;;33.85;28.68
29815;BME280;16708;50.426;7.664;2022-09-06T11:04:26;987.46;;;34.56;28.78
29815;BME280;16708;50.426;7.664;2022-09-06T11:09:22;987.38;;;34.02;27.95
29815;BME280;16708;50.426;7.664;2022-09-06T11:14:16;987.35;;;33.50;28.41
29815;BME280;16708;50.426;7.664;2022-09-06T11:19:11;987.25;;;34.06;28.75
29815;BME280;16708;50.426;7.664;2022-09-06T11:29:01;987.30;;;33.47;28.33
29815;BME280;16708;50.426;7.664;2022-09-06T11:33:56;987.19;;;34.56;28.47
29815;BME280;16708;50.426;7.664;2022-09-06T11:38:51;987.19;;;35.62;26.43
29815;BME280;16708;50.426;7.664;2022-09-06T11:53:35;987.06;;;35.82;24.89
29815;BME280;16708;50.426;7.664;2022-09-06T11:58:30;987.02;;;34.37;26.86
29815;BME280;16708;50.426;7.664;2022-09-06T12:03:25;987.01;;;35.86;24.93
29815;BME280;16708;50.426;7.664;2022-09-06T12:18:10;986.77;;;36.06;24.15
29815;BME280;16708;50.426;7.664;2022-09-06T12:23:05;986.76;;;38.67;21.73
29815;BME280;16708;50.426;7.664;2022-09-06T12:28:00;986.74;;;38.09;22.41
29815;BME280;16708;50.426;7.664;2022-09-06T12:32:55;986.61;;;37.69;22.79
29815;BME280;16708;50.426;7.664;2022-09-06T12:37:50;986.59;;;35.45;24.18
29815;BME280;16708;50.426;7.664;2022-09-06T12:42:45;986.54;;;38.51;22.41
29815;BME280;16708;50.426;7.664;2022-09-06T12:47:41;986.46;;;40.35;20.16
29815;BME280;16708;50.426;7.664;2022-09-06T12:57:30;986.39;;;34.08;26.67
29815;BME280;16708;50.426;7.664;2022-09-06T13:02:24;986.46;;;38.13;21.22
29815;BME280;16708;50.426;7.664;2022-09-06T13:07:21;986.65;;;39.72;20.21
29815;BME280;16708;50.426;7.664;2022-09-06T13:12:13;986.62;;;39.84;19.91
29815;BME280;16708;50.426;7.664;2022-09-06T13:22:03;986.41;;;37.65;21.96
29815;BME280;16708;50.426;7.664;2022-09-06T13:26:58;986.54;;;35.65;24.76
29815;BME280;16708;50.426;7.664;2022-09-06T13:31:51;986.53;;;32.69;30.15
29815;BME280;16708;50.426;7.664;2022-09-06T13:46:36;986.64;;;36.37;28.04
29815;BME280;16708;50.426;7.664;2022-09-06T13:51:31;986.51;;;38.27;23.55
29815;BME280;16708;50.426;7.664;2022-09-06T13:56:27;986.46;;;40.40;21.05
29815;BME280;16708;50.426;7.664;2022-09-06T14:01:23;986.20;;;37.45;24.21
29815;BME280;16708;50.426;7.664;2022-09-06T14:06:16;986.02;;;34.24;28.21
29815;BME280;16708;50.426;7.664;2022-09-06T14:11:10;986.10;;;37.85;22.48
29815;BME280;16708;50.426;7.664;2022-09-06T14:16:06;986.08;;;39.42;19.79
29815;BME280;16708;50.426;7.664;2022-09-06T14:21:02;985.92;;;37.30;22.41
29815;BME280;16708;50.426;7.664;2022-09-06T14:25:56;985.80;;;35.28;24.51
29815;BME280;16708;50.426;7.664;2022-09-06T14:30:50;985.74;;;35.90;23.42
29815;BME280;16708;50.426;7.664;2022-09-06T14:35:44;985.75;;;37.04;22.48
29815;BME280;16708;50.426;7.664;2022-09-06T14:40:39;985.79;;;39.06;20.29
29815;BME280;16708;50.426;7.664;2022-09-06T14:45:34;985.63;;;33.67;26.17
29815;BME280;16708;50.426;7.664;2022-09-06T14:50:28;985.64;;;31.51;33.33
29815;BME280;16708;50.426;7.664;2022-09-06T14:55:22;985.43;;;32.13;33.43
29815;BME280;16708;50.426;7.664;2022-09-06T15:00:15;985.51;;;35.82;27.19
29815;BME280;16708;50.426;7.664;2022-09-06T15:05:11;985.57;;;37.96;22.74
29815;BME280;16708;50.426;7.664;2022-09-06T15:10:08;985.45;;;38.60;20.62
29815;BME280;16708;50.426;7.664;2022-09-06T15:15:03;985.38;;;39.11;20.74
29815;BME280;16708;50.426;7.664;2022-09-06T15:19:59;985.33;;;37.49;22.58
29815;BME280;16708;50.426;7.664;2022-09-06T15:24:54;985.24;;;35.77;23.60
29815;BME280;16708;50.426;7.664;2022-09-06T15:29:49;985.23;;;37.29;22.70
29815;BME280;16708;50.426;7.664;2022-09-06T15:34:44;985.25;;;40.11;19.13
29815;BME280;16708;50.426;7.664;2022-09-06T15:39:39;985.15;;;38.53;20.70
29815;BME280;16708;50.426;7.664;2022-09-06T15:44:35;985.17;;;37.78;22.04
29815;BME280;16708;50.426;7.664;2022-09-06T15:49:30;985.21;;;37.33;22.81
29815;BME280;16708;50.426;7.664;2022-09-06T15:54:23;985.29;;;38.75;20.51
29815;BME280;16708;50.426;7.664;2022-09-06T15:59:17;985.27;;;37.86;21.19
29815;BME280;16708;50.426;7.664;2022-09-06T16:04:12;985.35;;;37.19;22.23
29815;BME280;16708;50.426;7.664;2022-09-06T16:09:05;985.44;;;34.36;26.68
29815;BME280;16708;50.426;7.664;2022-09-06T16:13:59;985.38;;;33.04;29.57
29815;BME280;16708;50.426;7.664;2022-09-06T16:18:53;985.46;;;31.61;32.24
29815;BME280;16708;50.426;7.664;2022-09-06T16:23:46;985.45;;;28.58;39.11
29815;BME280;16708;50.426;7.664;2022-09-06T16:28:40;985.44;;;28.37;40.78
29815;BME280;16708;50.426;7.664;2022-09-06T16:33:33;985.51;;;28.02;40.91
29815;BME280;16708;50.426;7.664;2022-09-06T16:38:27;985.70;;;27.09;47.92
29815;BME280;16708;50.426;7.664;2022-09-06T16:43:21;985.85;;;25.83;64.03
29815;BME280;16708;50.426;7.664;2022-09-06T16:48:14;985.77;;;24.83;88.09
29815;BME280;16708;50.426;7.664;2022-09-06T16:53:07;985.82;;;24.12;97.70
29815;BME280;16708;50.426;7.664;2022-09-06T16:58:01;985.70;;;23.86;100.00
29815;BME280;16708;50.426;7.664;2022-09-06T17:02:55;985.76;;;24.10;93.51
29815;BME280;16708;50.426;7.664;2022-09-06T17:07:50;985.75;;;26.15;73.14
29815;BME280;16708;50.426;7.664;2022-09-06T17:12:45;985.71;;;26.24;74.84
29815;BME280;16708;50.426;7.664;2022-09-06T17:17:40;985.55;;;25.66;88.58
29815;BME280;16708;50.426;7.664;2022-09-06T17:22:35;985.55;;;24.61;100.00
29815;BME280;16708;50.426;7.664;2022-09-06T17:27:29;985.49;;;24.10;100.00
29815;BME280;16708;50.426;7.664;2022-09-06T17:32:24;985.60;;;22.93;100.00
29815;BME280;16708;50.426;7.664;2022-09-06T17:37:19;985.49;;;22.49;100.00
29815;BME280;16708;50.426;7.664;2022-09-06T17:42:13;985.30;;;22.79;100.00
29815;BME280;16708;50.426;7.664;2022-09-06T17:47:08;985.52;;;22.70;100.00
29815;BME280;16708;50.426;7.664;2022-09-06T17:52:02;985.44;;;22.44;100.00
29815;BME280;16708;50.426;7.664;2022-09-06T17:56:56;985.45;;;22.02;100.00
29815;BME280;16708;50.426;7.664;2022-09-06T18:01:51;985.50;;;21.64;87.16
29815;BME280;16708;50.426;7.664;2022-09-06T18:06:45;985.60;;;21.82;100.00
29815;BME280;16708;50.426;7.664;2022-09-06T18:11:39;985.53;;;22.02;88.22
29815;BME280;16708;50.426;7.664;2022-09-06T18:16:34;985.45;;;22.18;76.18
29815;BME280;16708;50.426;7.664;2022-09-06T18:21:28;985.39;;;22.00;75.00
29815;BME280;16708;50.426;7.664;2022-09-06T18:26:22;985.34;;;21.97;75.98
29815;BME280;16708;50.426;7.664;2022-09-06T18:31:17;985.37;;;21.97;75.00
29815;BME280;16708;50.426;7.664;2022-09-06T18:41:06;985.34;;;21.87;75.14
29815;BME280;16708;50.426;7.664;2022-09-06T18:46:01;985.41;;;21.51;76.65
29815;BME280;16708;50.426;7.664;2022-09-06T18:55:48;985.49;;;21.54;75.36
29815;BME280;16708;50.426;7.664;2022-09-06T19:00:42;985.43;;;21.63;71.40
29815;BME280;16708;50.426;7.664;2022-09-06T19:05:37;985.40;;;21.81;64.58
29815;BME280;16708;50.426;7.664;2022-09-06T19:10:31;985.29;;;21.63;69.44
29815;BME280;16708;50.426;7.664;2022-09-06T19:15:26;985.22;;;21.81;64.48
29815;BME280;16708;50.426;7.664;2022-09-06T19:20:20;985.18;;;21.68;69.00
29815;BME280;16708;50.426;7.664;2022-09-06T19:25:15;985.08;;;21.50;74.04
29815;BME280;16708;50.426;7.664;2022-09-06T19:30:09;984.94;;;21.50;72.39
29815;BME280;16708;50.426;7.664;2022-09-06T19:35:04;984.82;;;21.32;75.11
29815;BME280;16708;50.426;7.664;2022-09-06T19:39:59;984.90;;;21.34;80.29
29815;BME280;16708;50.426;7.664;2022-09-06T19:44:54;984.89;;;21.04;84.45
29815;BME280;16708;50.426;7.664;2022-09-06T19:49:48;984.83;;;20.37;100.00
29815;BME280;16708;50.426;7.664;2022-09-06T19:54:43;984.87;;;20.31;95.87
29815;BME280;16708;50.426;7.664;2022-09-06T19:59:37;984.80;;;20.24;86.72
29815;BME280;16708;50.426;7.664;2022-09-06T20:04:32;984.76;;;20.28;88.43
29815;BME280;16708;50.426;7.664;2022-09-06T20:09:27;984.69;;;20.59;89.10
29815;BME280;16708;50.426;7.664;2022-09-06T20:14:22;984.82;;;20.59;89.32
29815;BME280;16708;50.426;7.664;2022-09-06T20:19:16;984.81;;;20.29;91.82
29815;BME280;16708;50.426;7.664;2022-09-06T20:24:11;984.85;;;20.05;100.00
29815;BME280;16708;50.426;7.664;2022-09-06T20:29:06;984.79;;;19.59;100.00
29815;BME280;16708;50.426;7.664;2022-09-06T20:34:01;984.84;;;19.63;100.00
29815;BME280;16708;50.426;7.664;2022-09-06T20:38:55;984.85;;;19.75;100.00
29815;BME280;16708;50.426;7.664;2022-09-06T20:43:49;984.89;;;19.78;100.00
29815;BME280;16708;50.426;7.664;2022-09-06T20:48:44;984.94;;;19.87;96.51
29815;BME280;16708;50.426;7.664;2022-09-06T20:53:39;985.03;;;19.83;100.00
29815;BME280;16708;50.426;7.664;2022-09-06T20:58:34;985.02;;;19.85;100.00
29815;BME280;16708;50.426;7.664;2022-09-06T21:03:28;985.09;;;19.70;100.00
29815;BME280;16708;50.426;7.664;2022-09-06T21:08:23;985.30;;;19.94;89.96
29815;BME280;16708;50.426;7.664;2022-09-06T21:13:18;985.36;;;20.16;89.89
29815;BME280;16708;50.426;7.664;2022-09-06T21:18:13;985.32;;;20.33;90.27
29815;BME280;16708;50.426;7.664;2022-09-06T21:23:08;985.20;;;20.34;91.83
29815;BME280;16708;50.426;7.664;2022-09-06T21:28:03;985.25;;;20.27;96.03
29815;BME280;16708;50.426;7.664;2022-09-06T21:32:58;985.16;;;20.03;96.56
29815;BME280;16708;50.426;7.664;2022-09-06T21:37:52;985.15;;;19.82;100.00
29815;BME280;16708;50.426;7.664;2022-09-06T21:42:46;985.02;;;19.88;97.49
29815;BME280;16708;50.426;7.664;2022-09-06T21:47:40;985.01;;;19.91;99.83
29815;BME280;16708;50.426;7.664;2022-09-06T21:52:34;984.95;;;19.71;100.00
29815;BME280;16708;50.426;7.664;2022-09-06T21:57:29;984.77;;;19.62;99.71
29815;BME280;16708;50.426;7.664;2022-09-06T22:02:24;984.77;;;19.50;100.00
29815;BME280;16708;50.426;7.664;2022-09-06T22:07:18;984.60;;;19.44;100.00
29815;BME280;16708;50.426;7.664;2022-09-06T22:12:12;984.45;;;19.75;93.93
29815;BME280;16708;50.426;7.664;2022-09-06T22:17:07;984.45;;;19.70;93.63
29815;BME280;16708;50.426;7.664;2022-09-06T22:22:02;984.50;;;19.57;95.96
29815;BME280;16708;50.426;7.664;2022-09-06T22:26:57;984.44;;;19.45;100.00
29815;BME280;16708;50.426;7.664;2022-09-06T22:31:52;984.26;;;19.32;100.00
29815;BME280;16708;50.426;7.664;2022-09-06T22:36:47;984.06;;;19.17;100.00
29815;BME280;16708;50.426;7.664;2022-09-06T22:41:42;984.16;;;19.05;100.00
29815;BME280;16708;50.426;7.664;2022-09-06T22:46:36;984.03;;;19.13;100.00
29815;BME280;16708;50.426;7.664;2022-09-06T22:51:31;983.91;;;19.16;100.00
29815;BME280;16708;50.426;7.664;2022-09-06T22:56:26;983.87;;;19.00;100.00
29815;BME280;16708;50.426;7.664;2022-09-06T23:01:18;983.98;;;18.93;100.00
29815;BME280;16708;50.426;7.664;2022-09-06T23:06:13;984.09;;;18.91;100.00
29815;BME280;16708;50.426;7.664;2022-09-06T23:11:08;984.37;;;19.00;100.00
29815;BME280;16708;50.426;7.664;2022-09-06T23:16:02;984.38;;;18.99;100.00
29815;BME280;16708;50.426;7.664;2022-09-06T23:20:57;984.49;;;19.08;100.00
29815;BME280;16708;50.426;7.664;2022-09-06T23:25:52;984.71;;;19.01;100.00
29815;BME280;16708;50.426;7.664;2022-09-06T23:30:47;984.76;;;18.92;100.00
29815;BME280;16708;50.426;7.664;2022-09-06T23:35:42;984.73;;;18.88;100.00
29815;BME280;16708;50.426;7.664;2022-09-06T23:40:37;984.56;;;18.86;100.00
29815;BME280;16708;50.426;7.664;2022-09-06T23:45:31;984.50;;;18.97;100.00
29815;BME280;16708;50.426;7.664;2022-09-06T23:50:26;984.48;;;19.20;97.49
29815;BME280;16708;50.426;7.664;2022-09-06T23:55:21;984.66;;;19.34;97.60
